sensor_id;sensor_type;location;lat;lon;timestamp;pressure;altitude;pressure_sealevel;temperature;humidity
3122;BME280;1571;52.524;14.104;2023-05-24T00:01:49;101151.94;;;11.00;98.86
3122;BME280;1571;52.524;14.104;2023-05-24T00:04:17;101143.56;;;10.92;98.19
3122;BME280;1571;52.524;14.104;2023-05-24T00:06:46;101155.72;;;10.96;98.23
3122;BME280;1571;52.524;14.104;2023-05-24T00:09:14;101157.59;;;11.10;97.82
3122;BME280;1571;52.524;14.104;2023-05-24T00:11:43;101156.09;;;10.90;98.16
3122;BME280;1571;52.524;14.104;2023-05-24T00:14:11;101154.72;;;10.83;98.67
3122;BME280;1571;52.524;14.104;2023-05-24T00:16:39;101149.97;;;11.04;98.76
3122;BME280;1571;52.524;14.104;2023-05-24T00:19:09;101161.72;;;11.00;98.00
3122;BME280;1571;52.524;14.104;2023-05-24T00:21:37;101157.13;;;10.88;97.11
3122;BME280;1571;52.524;14.104;2023-05-24T00:24:06;101164.13;;;10.89;95.92
3122;BME280;1571;52.524;14.104;2023-05-24T00:26:34;101154.88;;;10.80;95.28
3122;BME280;1571;52.524;14.104;2023-05-24T00:29:04;101158.66;;;10.76;94.52
3122;BME280;1571;52.524;14.104;2023-05-24T00:31:32;101161.31;;;10.76;94.42
3122;BME280;1571;52.524;14.104;2023-05-24T00:34:00;101173.91;;;10.56;93.71
3122;BME280;1571;52.524;14.104;2023-05-24T00:36:30;101173.56;;;10.62;93.84
3122;BME280;1571;52.524;14.104;2023-05-24T00:38:59;101178.13;;;10.60;93.01
3122;BME280;1571;52.524;14.104;2023-05-24T00:41:27;101176.63;;;10.39;92.29
3122;BME280;1571;52.524;14.104;2023-05-24T00:43:55;101183.66;;;10.56;91.70
3122;BME280;1571;52.524;14.104;2023-05-24T00:46:27;101175.81;;;10.54;91.06
3122;BME280;1571;52.524;14.104;2023-05-24T00:48:57;101176.91;;;10.50;91.37
3122;BME280;1571;52.524;14.104;2023-05-24T00:51:26;101178.03;;;10.62;91.75
3122;BME280;1571;52.524;14.104;2023-05-24T00:53:56;101181.44;;;10.48;91.62
3122;BME280;1571;52.524;14.104;2023-05-24T00:56:25;101179.03;;;10.44;91.02
3122;BME280;1571;52.524;14.104;2023-05-24T00:58:55;101190.25;;;10.15;91.29
3122;BME280;1571;52.524;14.104;2023-05-24T01:01:23;101181.38;;;10.16;92.03
3122;BME280;1571;52.524;14.104;2023-05-24T01:03:52;101185.13;;;10.12;91.60
3122;BME280;1571;52.524;14.104;2023-05-24T01:06:21;101185.28;;;10.09;91.73
3122;BME280;1571;52.524;14.104;2023-05-24T01:09:07;101193.53;;;10.20;91.37
3122;BME280;1571;52.524;14.104;2023-05-24T01:11:48;101190.34;;;10.14;91.38
3122;BME280;1571;52.524;14.104;2023-05-24T01:14:26;101190.91;;;10.03;91.62
3122;BME280;1571;52.524;14.104;2023-05-24T01:17:03;101196.41;;;10.00;91.82
3122;BME280;1571;52.524;14.104;2023-05-24T01:19:50;101193.31;;;10.08;91.68
3122;BME280;1571;52.524;14.104;2023-05-24T01:22:28;101196.47;;;9.98;92.21
3122;BME280;1571;52.524;14.104;2023-05-24T01:25:09;101193.97;;;9.95;92.52
3122;BME280;1571;52.524;14.104;2023-05-24T01:27:41;101199.44;;;9.92;91.92
3122;BME280;1571;52.524;14.104;2023-05-24T01:30:11;101193.03;;;9.79;92.12
3122;BME280;1571;52.524;14.104;2023-05-24T01:32:40;101196.53;;;9.97;92.89
3122;BME280;1571;52.524;14.104;2023-05-24T01:35:08;101196.72;;;9.94;93.94
3122;BME280;1571;52.524;14.104;2023-05-24T01:37:37;101202.63;;;9.82;94.31
3122;BME280;1571;52.524;14.104;2023-05-24T01:40:07;101203.59;;;9.80;94.36
3122;BME280;1571;52.524;14.104;2023-05-24T01:42:42;101198.34;;;9.79;94.28
3122;BME280;1571;52.524;14.104;2023-05-24T01:45:17;101195.63;;;9.80;93.99
3122;BME280;1571;52.524;14.104;2023-05-24T01:47:58;101198.44;;;9.77;94.15
3122;BME280;1571;52.524;14.104;2023-05-24T01:50:33;101209.13;;;9.58;94.13
3122;BME280;1571;52.524;14.104;2023-05-24T01:53:06;101210.13;;;9.56;94.53
3122;BME280;1571;52.524;14.104;2023-05-24T01:55:36;101216.69;;;9.49;95.65
3122;BME280;1571;52.524;14.104;2023-05-24T01:58:08;101226.44;;;9.48;95.45
3122;BME280;1571;52.524;14.104;2023-05-24T02:00:37;101214.72;;;9.52;95.74
3122;BME280;1571;52.524;14.104;2023-05-24T02:03:07;101225.41;;;9.33;95.15
3122;BME280;1571;52.524;14.104;2023-05-24T02:05:35;101224.34;;;9.18;95.77
3122;BME280;1571;52.524;14.104;2023-05-24T02:08:05;101231.31;;;9.21;95.67
3122;BME280;1571;52.524;14.104;2023-05-24T02:10:33;101224.00;;;9.26;95.39
3122;BME280;1571;52.524;14.104;2023-05-24T02:13:06;101222.34;;;9.24;94.79
3122;BME280;1571;52.524;14.104;2023-05-24T02:15:35;101217.13;;;9.22;94.88
3122;BME280;1571;52.524;14.104;2023-05-24T02:18:03;101228.66;;;9.21;94.87
3122;BME280;1571;52.524;14.104;2023-05-24T02:20:34;101228.50;;;9.24;94.78
3122;BME280;1571;52.524;14.104;2023-05-24T02:23:03;101225.22;;;9.19;94.77
3122;BME280;1571;52.524;14.104;2023-05-24T02:25:32;101226.31;;;9.15;95.00
3122;BME280;1571;52.524;14.104;2023-05-24T02:28:00;101233.41;;;9.14;94.34
3122;BME280;1571;52.524;14.104;2023-05-24T02:30:30;101225.38;;;9.16;94.50
3122;BME280;1571;52.524;14.104;2023-05-24T02:32:59;101233.28;;;8.99;94.95
3122;BME280;1571;52.524;14.104;2023-05-24T02:35:28;101226.88;;;9.03;94.95
3122;BME280;1571;52.524;14.104;2023-05-24T02:37:56;101218.38;;;9.15;94.83
3122;BME280;1571;52.524;14.104;2023-05-24T02:40:24;101228.97;;;9.15;95.34
3122;BME280;1571;52.524;14.104;2023-05-24T02:42:53;101223.63;;;8.98;95.13
3122;BME280;1571;52.524;14.104;2023-05-24T02:45:21;101222.25;;;9.08;95.45
3122;BME280;1571;52.524;14.104;2023-05-24T02:47:50;101220.97;;;8.98;95.35
3122;BME280;1571;52.524;14.104;2023-05-24T02:50:19;101217.31;;;9.00;94.87
3122;BME280;1571;52.524;14.104;2023-05-24T02:52:47;101220.28;;;8.75;94.76
3122;BME280;1571;52.524;14.104;2023-05-24T02:55:16;101225.44;;;8.78;95.11
3122;BME280;1571;52.524;14.104;2023-05-24T02:57:45;101230.84;;;8.75;95.08
3122;BME280;1571;52.524;14.104;2023-05-24T03:00:15;101229.94;;;8.76;94.93
3122;BME280;1571;52.524;14.104;2023-05-24T03:02:45;101224.22;;;8.85;94.51
3122;BME280;1571;52.524;14.104;2023-05-24T03:05:18;101229.34;;;8.88;94.35
3122;BME280;1571;52.524;14.104;2023-05-24T03:07:47;101225.56;;;8.75;94.07
3122;BME280;1571;52.524;14.104;2023-05-24T03:10:15;101227.00;;;8.63;94.48
3122;BME280;1571;52.524;14.104;2023-05-24T03:12:43;101227.84;;;8.64;95.13
3122;BME280;1571;52.524;14.104;2023-05-24T03:15:12;101229.00;;;8.77;95.41
3122;BME280;1571;52.524;14.104;2023-05-24T03:17:40;101231.28;;;8.66;95.48
3122;BME280;1571;52.524;14.104;2023-05-24T03:20:09;101233.44;;;8.58;95.88
3122;BME280;1571;52.524;14.104;2023-05-24T03:22:40;101237.22;;;8.71;95.74
3122;BME280;1571;52.524;14.104;2023-05-24T03:25:08;101236.44;;;8.69;95.87
3122;BME280;1571;52.524;14.104;2023-05-24T03:27:37;101235.78;;;8.64;95.76
3122;BME280;1571;52.524;14.104;2023-05-24T03:30:07;101234.31;;;8.58;96.45
3122;BME280;1571;52.524;14.104;2023-05-24T03:32:43;101238.03;;;8.54;96.87
3122;BME280;1571;52.524;14.104;2023-05-24T03:35:11;101236.22;;;8.54;96.84
3122;BME280;1571;52.524;14.104;2023-05-24T03:37:41;101234.59;;;8.52;97.14
3122;BME280;1571;52.524;14.104;2023-05-24T03:40:10;101233.28;;;8.42;97.39
3122;BME280;1571;52.524;14.104;2023-05-24T03:42:58;101233.16;;;8.45;97.95
3122;BME280;1571;52.524;14.104;2023-05-24T03:45:53;101232.81;;;8.32;98.01
3122;BME280;1571;52.524;14.104;2023-05-24T03:48:21;101244.13;;;8.36;98.16
3122;BME280;1571;52.524;14.104;2023-05-24T03:50:51;101243.44;;;8.30;98.34
3122;BME280;1571;52.524;14.104;2023-05-24T03:53:20;101247.03;;;8.29;98.45
3122;BME280;1571;52.524;14.104;2023-05-24T03:55:49;101239.94;;;8.30;98.31
3122;BME280;1571;52.524;14.104;2023-05-24T03:58:18;101249.25;;;8.20;98.76
3122;BME280;1571;52.524;14.104;2023-05-24T04:00:46;101247.91;;;8.09;99.51
3122;BME280;1571;52.524;14.104;2023-05-24T04:03:14;101247.34;;;8.22;99.59
3122;BME280;1571;52.524;14.104;2023-05-24T04:05:46;101242.53;;;8.31;99.58
3122;BME280;1571;52.524;14.104;2023-05-24T04:08:15;101257.56;;;8.31;99.77
3122;BME280;1571;52.524;14.104;2023-05-24T04:10:44;101248.63;;;8.33;99.74
3122;BME280;1571;52.524;14.104;2023-05-24T04:13:13;101260.47;;;8.25;99.71
3122;BME280;1571;52.524;14.104;2023-05-24T04:15:41;101256.19;;;8.22;99.47
3122;BME280;1571;52.524;14.104;2023-05-24T04:18:10;101252.28;;;8.31;99.88
3122;BME280;1571;52.524;14.104;2023-05-24T04:20:39;101251.97;;;8.37;99.89
3122;BME280;1571;52.524;14.104;2023-05-24T04:23:09;101255.97;;;8.27;99.40
3122;BME280;1571;52.524;14.104;2023-05-24T04:25:37;101262.16;;;8.26;99.21
3122;BME280;1571;52.524;14.104;2023-05-24T04:28:07;101256.22;;;8.41;98.90
3122;BME280;1571;52.524;14.104;2023-05-24T04:30:36;101260.63;;;8.42;99.08
3122;BME280;1571;52.524;14.104;2023-05-24T04:33:04;101267.19;;;8.32;98.52
3122;BME280;1571;52.524;14.104;2023-05-24T04:35:33;101260.03;;;8.54;98.65
3122;BME280;1571;52.524;14.104;2023-05-24T04:38:01;101270.78;;;8.51;98.83
3122;BME280;1571;52.524;14.104;2023-05-24T04:40:29;101271.34;;;8.58;99.11
3122;BME280;1571;52.524;14.104;2023-05-24T04:42:58;101263.22;;;8.63;99.32
3122;BME280;1571;52.524;14.104;2023-05-24T04:45:28;101270.84;;;8.69;99.64
3122;BME280;1571;52.524;14.104;2023-05-24T04:47:58;101272.16;;;8.60;99.72
3122;BME280;1571;52.524;14.104;2023-05-24T04:50:27;101276.94;;;8.71;99.56
3122;BME280;1571;52.524;14.104;2023-05-24T04:52:55;101277.09;;;8.68;99.73
3122;BME280;1571;52.524;14.104;2023-05-24T04:55:24;101277.94;;;8.68;98.62
3122;BME280;1571;52.524;14.104;2023-05-24T04:57:52;101280.63;;;8.67;98.34
3122;BME280;1571;52.524;14.104;2023-05-24T05:00:20;101279.84;;;9.03;97.85
3122;BME280;1571;52.524;14.104;2023-05-24T05:02:50;101282.16;;;9.10;97.41
3122;BME280;1571;52.524;14.104;2023-05-24T05:05:18;101285.25;;;9.01;97.79
3122;BME280;1571;52.524;14.104;2023-05-24T05:07:47;101291.31;;;9.22;97.01
3122;BME280;1571;52.524;14.104;2023-05-24T05:10:15;101285.91;;;9.43;96.14
3122;BME280;1571;52.524;14.104;2023-05-24T05:12:43;101288.50;;;9.62;96.12
3122;BME280;1571;52.524;14.104;2023-05-24T05:15:11;101295.44;;;9.82;96.26
3122;BME280;1571;52.524;14.104;2023-05-24T05:17:39;101297.50;;;9.94;95.27
3122;BME280;1571;52.524;14.104;2023-05-24T05:20:09;101281.88;;;10.05;94.13
3122;BME280;1571;52.524;14.104;2023-05-24T05:22:37;101299.81;;;9.83;92.34
3122;BME280;1571;52.524;14.104;2023-05-24T05:25:06;101294.75;;;10.13;92.05
3122;BME280;1571;52.524;14.104;2023-05-24T05:27:34;101299.66;;;10.38;90.48
3122;BME280;1571;52.524;14.104;2023-05-24T05:30:03;101285.25;;;10.59;89.19
3122;BME280;1571;52.524;14.104;2023-05-24T05:32:31;101306.00;;;10.69;88.05
3122;BME280;1571;52.524;14.104;2023-05-24T05:35:00;101305.38;;;10.97;88.05
3122;BME280;1571;52.524;14.104;2023-05-24T05:37:30;101308.63;;;11.02;86.53
3122;BME280;1571;52.524;14.104;2023-05-24T05:39:58;101311.00;;;11.07;85.92
3122;BME280;1571;52.524;14.104;2023-05-24T05:42:26;101314.78;;;11.02;86.80
3122;BME280;1571;52.524;14.104;2023-05-24T05:44:54;101308.28;;;11.24;86.11
3122;BME280;1571;52.524;14.104;2023-05-24T05:47:23;101311.88;;;11.07;86.04
3122;BME280;1571;52.524;14.104;2023-05-24T05:49:51;101315.81;;;11.00;86.09
3122;BME280;1571;52.524;14.104;2023-05-24T05:52:19;101317.69;;;11.14;86.79
3122;BME280;1571;52.524;14.104;2023-05-24T05:54:49;101314.53;;;11.23;85.74
3122;BME280;1571;52.524;14.104;2023-05-24T05:57:17;101312.88;;;11.36;84.50
3122;BME280;1571;52.524;14.104;2023-05-24T05:59:50;101323.19;;;11.11;85.06
3122;BME280;1571;52.524;14.104;2023-05-24T06:02:18;101315.31;;;11.25;83.94
3122;BME280;1571;52.524;14.104;2023-05-24T06:04:48;101326.44;;;11.48;83.56
3122;BME280;1571;52.524;14.104;2023-05-24T06:07:17;101321.13;;;11.32;84.77
3122;BME280;1571;52.524;14.104;2023-05-24T06:09:46;101316.81;;;11.61;82.66
3122;BME280;1571;52.524;14.104;2023-05-24T06:12:15;101330.19;;;11.59;82.41
3122;BME280;1571;52.524;14.104;2023-05-24T06:14:43;101328.94;;;11.51;81.43
3122;BME280;1571;52.524;14.104;2023-05-24T06:17:14;101340.13;;;11.72;81.69
3122;BME280;1571;52.524;14.104;2023-05-24T06:19:42;101343.84;;;11.69;80.38
3122;BME280;1571;52.524;14.104;2023-05-24T06:22:11;101341.34;;;11.66;79.70
3122;BME280;1571;52.524;14.104;2023-05-24T06:24:39;101341.19;;;11.53;79.84
3122;BME280;1571;52.524;14.104;2023-05-24T06:27:08;101344.06;;;11.80;80.35
3122;BME280;1571;52.524;14.104;2023-05-24T06:29:37;101346.31;;;11.72;79.78
3122;BME280;1571;52.524;14.104;2023-05-24T06:32:05;101345.69;;;11.83;79.20
3122;BME280;1571;52.524;14.104;2023-05-24T06:34:34;101351.38;;;11.61;79.09
3122;BME280;1571;52.524;14.104;2023-05-24T06:37:02;101358.50;;;11.92;79.42
3122;BME280;1571;52.524;14.104;2023-05-24T06:39:31;101359.44;;;12.21;78.84
3122;BME280;1571;52.524;14.104;2023-05-24T06:41:59;101361.75;;;12.27;79.15
3122;BME280;1571;52.524;14.104;2023-05-24T06:44:35;101363.66;;;12.40;79.00
3122;BME280;1571;52.524;14.104;2023-05-24T06:47:05;101365.47;;;12.09;77.38
3122;BME280;1571;52.524;14.104;2023-05-24T06:49:35;101369.63;;;12.29;77.25
3122;BME280;1571;52.524;14.104;2023-05-24T06:52:04;101366.00;;;12.00;77.33
3122;BME280;1571;52.524;14.104;2023-05-24T06:54:33;101359.84;;;12.29;76.18
3122;BME280;1571;52.524;14.104;2023-05-24T06:57:02;101374.22;;;12.11;75.58
3122;BME280;1571;52.524;14.104;2023-05-24T06:59:31;101377.19;;;11.75;76.32
3122;BME280;1571;52.524;14.104;2023-05-24T07:01:59;101394.13;;;11.90;76.84
3122;BME280;1571;52.524;14.104;2023-05-24T07:04:31;101393.34;;;11.87;77.92
3122;BME280;1571;52.524;14.104;2023-05-24T07:07:00;101405.41;;;11.93;77.88
3122;BME280;1571;52.524;14.104;2023-05-24T07:09:29;101396.47;;;12.10;75.57
3122;BME280;1571;52.524;14.104;2023-05-24T07:11:57;101401.03;;;12.08;75.36
3122;BME280;1571;52.524;14.104;2023-05-24T07:14:26;101395.34;;;12.14;74.32
3122;BME280;1571;52.524;14.104;2023-05-24T07:16:54;101399.69;;;12.01;74.66
3122;BME280;1571;52.524;14.104;2023-05-24T07:19:25;101399.78;;;12.29;74.70
3122;BME280;1571;52.524;14.104;2023-05-24T07:21:57;101397.97;;;12.75;75.16
3122;BME280;1571;52.524;14.104;2023-05-24T07:24:25;101391.88;;;13.30;74.08
3122;BME280;1571;52.524;14.104;2023-05-24T07:26:53;101392.44;;;12.92;72.88
3122;BME280;1571;52.524;14.104;2023-05-24T07:29:23;101399.88;;;13.16;73.94
3122;BME280;1571;52.524;14.104;2023-05-24T07:31:53;101414.13;;;13.15;74.06
3122;BME280;1571;52.524;14.104;2023-05-24T07:34:22;101409.28;;;13.21;72.69
3122;BME280;1571;52.524;14.104;2023-05-24T07:36:53;101420.16;;;12.45;73.69
3122;BME280;1571;52.524;14.104;2023-05-24T07:39:24;101433.09;;;12.51;72.58
3122;BME280;1571;52.524;14.104;2023-05-24T07:41:53;101420.63;;;12.37;72.06
3122;BME280;1571;52.524;14.104;2023-05-24T07:44:21;101431.66;;;12.15;72.55
3122;BME280;1571;52.524;14.104;2023-05-24T07:46:50;101432.25;;;12.20;73.73
3122;BME280;1571;52.524;14.104;2023-05-24T07:49:18;101435.13;;;12.47;73.46
3122;BME280;1571;52.524;14.104;2023-05-24T07:51:47;101431.22;;;12.67;73.13
3122;BME280;1571;52.524;14.104;2023-05-24T07:54:15;101429.19;;;13.16;72.86
3122;BME280;1571;52.524;14.104;2023-05-24T07:56:45;101427.16;;;13.19;73.27
3122;BME280;1571;52.524;14.104;2023-05-24T07:59:13;101433.03;;;13.40;71.99
3122;BME280;1571;52.524;14.104;2023-05-24T08:01:41;101426.50;;;13.59;70.79
3122;BME280;1571;52.524;14.104;2023-05-24T08:04:10;101432.53;;;13.89;69.23
3122;BME280;1571;52.524;14.104;2023-05-24T08:06:38;101431.53;;;13.63;68.86
3122;BME280;1571;52.524;14.104;2023-05-24T08:09:07;101439.59;;;13.35;69.84
3122;BME280;1571;52.524;14.104;2023-05-24T08:11:36;101431.41;;;13.79;67.85
3122;BME280;1571;52.524;14.104;2023-05-24T08:14:06;101438.97;;;14.00;68.62
3122;BME280;1571;52.524;14.104;2023-05-24T08:16:34;101430.22;;;14.37;66.29
3122;BME280;1571;52.524;14.104;2023-05-24T08:19:02;101427.75;;;14.34;65.72
3122;BME280;1571;52.524;14.104;2023-05-24T08:21:31;101433.56;;;14.54;66.23
3122;BME280;1571;52.524;14.104;2023-05-24T08:24:00;101428.44;;;14.51;64.19
3122;BME280;1571;52.524;14.104;2023-05-24T08:26:28;101434.41;;;14.42;64.27
3122;BME280;1571;52.524;14.104;2023-05-24T08:28:56;101434.94;;;14.07;63.59
3122;BME280;1571;52.524;14.104;2023-05-24T08:31:26;101436.66;;;14.08;62.50
3122;BME280;1571;52.524;14.104;2023-05-24T08:33:54;101434.16;;;14.05;63.44
3122;BME280;1571;52.524;14.104;2023-05-24T08:36:23;101441.44;;;14.30;63.82
3122;BME280;1571;52.524;14.104;2023-05-24T08:38:52;101457.41;;;14.17;64.39
3122;BME280;1571;52.524;14.104;2023-05-24T08:41:20;101457.53;;;14.28;64.75
3122;BME280;1571;52.524;14.104;2023-05-24T08:43:49;101461.06;;;14.29;65.44
3122;BME280;1571;52.524;14.104;2023-05-24T08:46:18;101464.00;;;14.11;66.22
3122;BME280;1571;52.524;14.104;2023-05-24T08:48:48;101470.44;;;14.22;67.50
3122;BME280;1571;52.524;14.104;2023-05-24T08:51:16;101461.91;;;13.89;65.66
3122;BME280;1571;52.524;14.104;2023-05-24T08:53:45;101467.16;;;14.58;64.94
3122;BME280;1571;52.524;14.104;2023-05-24T08:56:17;101460.88;;;14.59;64.08
3122;BME280;1571;52.524;14.104;2023-05-24T08:58:45;101470.72;;;14.71;64.36
3122;BME280;1571;52.524;14.104;2023-05-24T09:01:15;101470.72;;;14.44;65.31
3122;BME280;1571;52.524;14.104;2023-05-24T09:03:45;101466.13;;;14.86;63.35
3122;BME280;1571;52.524;14.104;2023-05-24T09:06:17;101474.75;;;14.64;63.43
3122;BME280;1571;52.524;14.104;2023-05-24T09:08:46;101484.47;;;14.25;64.78
3122;BME280;1571;52.524;14.104;2023-05-24T09:11:19;101489.88;;;14.51;64.53
3122;BME280;1571;52.524;14.104;2023-05-24T09:13:49;101479.56;;;14.59;63.76
3122;BME280;1571;52.524;14.104;2023-05-24T09:16:18;101482.66;;;14.38;62.98
3122;BME280;1571;52.524;14.104;2023-05-24T09:18:47;101479.81;;;14.42;62.32
3122;BME280;1571;52.524;14.104;2023-05-24T09:21:17;101482.75;;;14.24;62.86
3122;BME280;1571;52.524;14.104;2023-05-24T09:23:45;101475.69;;;13.96;64.65
3122;BME280;1571;52.524;14.104;2023-05-24T09:26:14;101491.50;;;14.26;66.28
3122;BME280;1571;52.524;14.104;2023-05-24T09:28:42;101482.38;;;14.83;63.62
3122;BME280;1571;52.524;14.104;2023-05-24T09:31:11;101486.66;;;14.73;63.67
3122;BME280;1571;52.524;14.104;2023-05-24T09:33:40;101475.00;;;14.87;61.46
3122;BME280;1571;52.524;14.104;2023-05-24T09:36:09;101472.13;;;14.90;61.28
3122;BME280;1571;52.524;14.104;2023-05-24T09:38:39;101473.84;;;14.91;60.40
3122;BME280;1571;52.524;14.104;2023-05-24T09:41:08;101458.63;;;15.30;58.99
3122;BME280;1571;52.524;14.104;2023-05-24T09:43:46;101478.56;;;15.00;59.36
3122;BME280;1571;52.524;14.104;2023-05-24T09:46:15;101478.84;;;14.83;60.04
3122;BME280;1571;52.524;14.104;2023-05-24T09:48:54;101478.97;;;15.07;59.60
3122;BME280;1571;52.524;14.104;2023-05-24T09:51:22;101466.53;;;15.44;57.89
3122;BME280;1571;52.524;14.104;2023-05-24T09:53:55;101483.22;;;15.60;60.01
3122;BME280;1571;52.524;14.104;2023-05-24T09:56:24;101471.22;;;16.27;57.90
3122;BME280;1571;52.524;14.104;2023-05-24T09:58:53;101457.75;;;16.16;55.14
3122;BME280;1571;52.524;14.104;2023-05-24T10:01:23;101453.88;;;16.20;55.42
3122;BME280;1571;52.524;14.104;2023-05-24T10:03:53;101468.16;;;15.96;57.27
3122;BME280;1571;52.524;14.104;2023-05-24T10:06:22;101480.66;;;15.72;56.74
3122;BME280;1571;52.524;14.104;2023-05-24T10:08:52;101487.47;;;15.63;57.65
3122;BME280;1571;52.524;14.104;2023-05-24T10:11:22;101487.25;;;15.79;57.48
3122;BME280;1571;52.524;14.104;2023-05-24T10:13:51;101491.03;;;16.00;56.31
3122;BME280;1571;52.524;14.104;2023-05-24T10:16:20;101489.84;;;15.42;58.30
3122;BME280;1571;52.524;14.104;2023-05-24T10:18:48;101499.28;;;15.60;58.76
3122;BME280;1571;52.524;14.104;2023-05-24T10:21:18;101503.47;;;15.39;58.82
3122;BME280;1571;52.524;14.104;2023-05-24T10:23:50;101495.44;;;15.26;58.60
3122;BME280;1571;52.524;14.104;2023-05-24T10:26:22;101514.06;;;15.02;59.40
3122;BME280;1571;52.524;14.104;2023-05-24T10:28:56;101514.91;;;15.03;59.60
3122;BME280;1571;52.524;14.104;2023-05-24T10:31:30;101504.44;;;15.38;60.13
3122;BME280;1571;52.524;14.104;2023-05-24T10:34:02;101511.69;;;15.49;59.33
3122;BME280;1571;52.524;14.104;2023-05-24T10:36:52;101507.19;;;15.75;58.92
3122;BME280;1571;52.524;14.104;2023-05-24T10:39:21;101491.91;;;16.25;57.07
3122;BME280;1571;52.524;14.104;2023-05-24T10:41:51;101494.75;;;16.70;56.36
3122;BME280;1571;52.524;14.104;2023-05-24T10:44:27;101478.94;;;15.19;54.73
3122;BME280;1571;52.524;14.104;2023-05-24T10:47:06;101486.22;;;16.06;57.56
3122;BME280;1571;52.524;14.104;2023-05-24T10:49:35;101489.41;;;16.35;56.33
3122;BME280;1571;52.524;14.104;2023-05-24T10:52:09;101474.03;;;16.72;54.56
3122;BME280;1571;52.524;14.104;2023-05-24T10:54:38;101502.94;;;16.69;56.00
3122;BME280;1571;52.524;14.104;2023-05-24T10:57:27;101499.19;;;16.23;55.72
3122;BME280;1571;52.524;14.104;2023-05-24T10:59:56;101512.00;;;15.57;56.17
3122;BME280;1571;52.524;14.104;2023-05-24T11:02:26;101530.41;;;15.10;58.88
3122;BME280;1571;52.524;14.104;2023-05-24T11:05:04;101528.91;;;14.93;59.92
3122;BME280;1571;52.524;14.104;2023-05-24T11:07:40;101528.97;;;14.52;59.57
3122;BME280;1571;52.524;14.104;2023-05-24T11:10:10;101529.56;;;14.03;61.46
3122;BME280;1571;52.524;14.104;2023-05-24T11:12:42;101529.06;;;14.65;60.06
3122;BME280;1571;52.524;14.104;2023-05-24T11:15:11;101524.50;;;14.80;60.00
3122;BME280;1571;52.524;14.104;2023-05-24T11:18:13;101521.09;;;14.90;59.66
3122;BME280;1571;52.524;14.104;2023-05-24T11:20:43;101512.53;;;15.75;59.54
3122;BME280;1571;52.524;14.104;2023-05-24T11:23:13;101500.66;;;15.79;57.03
3122;BME280;1571;52.524;14.104;2023-05-24T11:25:44;101489.22;;;16.01;56.47
3122;BME280;1571;52.524;14.104;2023-05-24T11:28:15;101495.16;;;16.41;55.73
3122;BME280;1571;52.524;14.104;2023-05-24T11:30:45;101496.56;;;16.94;56.68
3122;BME280;1571;52.524;14.104;2023-05-24T11:33:14;101489.53;;;17.26;54.95
3122;BME280;1571;52.524;14.104;2023-05-24T11:35:43;101476.75;;;17.30;53.20
3122;BME280;1571;52.524;14.104;2023-05-24T11:38:13;101468.19;;;17.59;53.70
3122;BME280;1571;52.524;14.104;2023-05-24T11:40:43;101480.50;;;17.73;53.37
3122;BME280;1571;52.524;14.104;2023-05-24T11:43:11;101474.66;;;17.34;52.11
3122;BME280;1571;52.524;14.104;2023-05-24T11:45:45;101478.78;;;17.26;54.17
3122;BME280;1571;52.524;14.104;2023-05-24T11:48:15;101476.44;;;17.78;53.31
3122;BME280;1571;52.524;14.104;2023-05-24T11:50:45;101481.88;;;16.40;53.30
3122;BME280;1571;52.524;14.104;2023-05-24T11:53:17;101502.88;;;16.81;55.09
3122;BME280;1571;52.524;14.104;2023-05-24T11:55:45;101497.88;;;16.53;56.00
3122;BME280;1571;52.524;14.104;2023-05-24T11:58:21;101506.56;;;16.08;57.31
3122;BME280;1571;52.524;14.104;2023-05-24T12:00:51;101509.63;;;15.78;56.30
3122;BME280;1571;52.524;14.104;2023-05-24T12:03:20;101510.22;;;15.45;57.57
3122;BME280;1571;52.524;14.104;2023-05-24T12:05:49;101512.56;;;15.49;59.40
3122;BME280;1571;52.524;14.104;2023-05-24T12:08:18;101501.75;;;16.24;56.64
3122;BME280;1571;52.524;14.104;2023-05-24T12:10:47;101495.53;;;16.48;54.80
3122;BME280;1571;52.524;14.104;2023-05-24T12:13:19;101484.38;;;16.90;53.58
3122;BME280;1571;52.524;14.104;2023-05-24T12:15:49;101465.00;;;17.42;51.42
3122;BME280;1571;52.524;14.104;2023-05-24T12:18:24;101463.63;;;17.93;50.97
3122;BME280;1571;52.524;14.104;2023-05-24T12:20:53;101469.50;;;17.64;51.56
3122;BME280;1571;52.524;14.104;2023-05-24T12:23:22;101469.38;;;17.77;52.29
3122;BME280;1571;52.524;14.104;2023-05-24T12:25:56;101485.63;;;17.42;53.40
3122;BME280;1571;52.524;14.104;2023-05-24T12:28:25;101482.47;;;17.25;53.73
3122;BME280;1571;52.524;14.104;2023-05-24T12:30:54;101479.16;;;17.67;53.24
3122;BME280;1571;52.524;14.104;2023-05-24T12:33:24;101489.03;;;17.21;54.13
3122;BME280;1571;52.524;14.104;2023-05-24T12:35:53;101479.03;;;17.80;51.83
3122;BME280;1571;52.524;14.104;2023-05-24T12:38:22;101477.44;;;17.77;51.29
3122;BME280;1571;52.524;14.104;2023-05-24T12:40:52;101473.06;;;17.42;51.86
3122;BME280;1571;52.524;14.104;2023-05-24T12:43:39;101492.88;;;16.83;54.00
3122;BME280;1571;52.524;14.104;2023-05-24T12:46:07;101497.56;;;17.04;54.79
3122;BME280;1571;52.524;14.104;2023-05-24T12:48:37;101491.63;;;16.76;54.16
3122;BME280;1571;52.524;14.104;2023-05-24T12:51:05;101497.84;;;16.41;54.52
3122;BME280;1571;52.524;14.104;2023-05-24T12:53:34;101501.28;;;15.70;55.58
3122;BME280;1571;52.524;14.104;2023-05-24T12:56:03;101515.75;;;15.54;56.29
3122;BME280;1571;52.524;14.104;2023-05-24T12:58:31;101501.53;;;16.52;54.61
3122;BME280;1571;52.524;14.104;2023-05-24T13:00:59;101498.09;;;16.50;55.60
3122;BME280;1571;52.524;14.104;2023-05-24T13:03:27;101483.44;;;17.58;52.98
3122;BME280;1571;52.524;14.104;2023-05-24T13:05:57;101476.22;;;17.93;52.78
3122;BME280;1571;52.524;14.104;2023-05-24T13:08:26;101469.72;;;18.06;52.20
3122;BME280;1571;52.524;14.104;2023-05-24T13:10:56;101488.31;;;17.19;54.69
3122;BME280;1571;52.524;14.104;2023-05-24T13:13:24;101489.31;;;17.41;54.96
3122;BME280;1571;52.524;14.104;2023-05-24T13:15:52;101479.03;;;17.68;53.02
3122;BME280;1571;52.524;14.104;2023-05-24T13:18:21;101483.66;;;17.66;53.70